createdAt,value
2022-11-16T00:01:02.649Z,4.57
2022-11-16T00:03:32.659Z,4.51
2022-11-16T00:06:03.557Z,4.44
2022-11-16T00:08:35.093Z,4.46
2022-11-16T00:11:09.351Z,4.47
2022-11-16T00:13:39.399Z,4.52
2022-11-16T00:16:16.032Z,4.49
2022-11-16T00:18:45.391Z,4.49
2022-11-16T00:21:14.037Z,4.49
2022-11-16T00:23:42.301Z,4.46
2022-11-16T00:26:13.938Z,4.46
2022-11-16T00:28:42.559Z,4.46
2022-11-16T00:31:12.523Z,4.43
2022-11-16T00:33:41.462Z,4.43
2022-11-16T00:36:13.275Z,4.45
2022-11-16T00:38:42.487Z,4.42
2022-11-16T00:41:11.688Z,4.41
2022-11-16T00:43:40.343Z,4.37
2022-11-16T00:46:10.887Z,4.38
2022-11-16T00:48:39.492Z,4.37
2022-11-16T00:51:08.149Z,4.33
2022-11-16T00:53:37.414Z,4.27
2022-11-16T00:56:07.190Z,4.20
2022-11-16T00:58:41.992Z,4.16
2022-11-16T01:01:16.151Z,4.09
2022-11-16T01:03:44.985Z,4.01
2022-11-16T01:06:16.165Z,3.96
2022-11-16T01:08:45.802Z,3.97
2022-11-16T01:11:34.069Z,3.93
2022-11-16T01:14:04.297Z,3.91
2022-11-16T01:16:34.481Z,3.93
2022-11-16T01:19:03.874Z,3.92
2022-11-16T01:21:32.511Z,3.90
2022-11-16T01:24:00.869Z,3.83
2022-11-16T01:26:29.579Z,3.81
2022-11-16T01:28:59.956Z,3.78
2022-11-16T01:31:33.678Z,3.78
2022-11-16T01:34:04.835Z,3.79
2022-11-16T01:36:35.464Z,3.80
2022-11-16T01:39:05.299Z,3.79
2022-11-16T01:41:45.216Z,3.76
2022-11-16T01:44:57.883Z,3.76
2022-11-16T01:47:28.626Z,3.74
2022-11-16T01:50:11.032Z,3.68
2022-11-16T01:52:49.105Z,3.66
2022-11-16T01:55:19.174Z,3.58
2022-11-16T01:58:03.821Z,3.63
2022-11-16T02:00:34.317Z,3.68
2022-11-16T02:03:23.164Z,3.66
2022-11-16T02:06:17.184Z,3.61
2022-11-16T02:09:26.123Z,3.63
2022-11-16T02:12:38.110Z,3.69
2022-11-16T02:15:20.939Z,3.75
2022-11-16T02:18:13.414Z,3.75
2022-11-16T02:21:11.377Z,3.71
2022-11-16T02:24:12.043Z,3.75
2022-11-16T02:26:54.326Z,3.67
2022-11-16T02:29:29.754Z,3.63
2022-11-16T02:32:06.162Z,3.67
2022-11-16T02:34:43.469Z,3.63
2022-11-16T02:37:15.855Z,3.63
2022-11-16T02:39:49.098Z,3.57
2022-11-16T02:42:29.872Z,3.60
2022-11-16T02:45:01.735Z,3.64
2022-11-16T02:47:35.433Z,3.66
2022-11-16T02:50:10.085Z,3.61
2022-11-16T02:52:40.043Z,3.63
2022-11-16T02:55:11.515Z,3.64
2022-11-16T02:57:45.311Z,3.62
2022-11-16T03:00:22.709Z,3.59
2022-11-16T03:03:17.338Z,3.63
2022-11-16T03:05:51.361Z,3.63
2022-11-16T03:08:26.490Z,3.56
2022-11-16T03:11:18.184Z,3.56
2022-11-16T03:13:48.180Z,3.55
2022-11-16T03:16:23.830Z,3.55
2022-11-16T03:18:54.855Z,3.58
2022-11-16T03:21:35.547Z,3.57
2022-11-16T03:24:04.498Z,3.60
2022-11-16T03:26:48.832Z,3.62
2022-11-16T03:29:31.194Z,3.62
2022-11-16T03:32:14.614Z,3.58
2022-11-16T03:34:52.394Z,3.60
2022-11-16T03:37:22.901Z,3.60
2022-11-16T03:39:54.649Z,3.61
2022-11-16T03:42:27.132Z,3.59
2022-11-16T03:44:57.482Z,3.55
2022-11-16T03:47:28.820Z,3.58
2022-11-16T03:49:57.200Z,3.62
2022-11-16T03:52:26.661Z,3.62
2022-11-16T03:54:55.051Z,3.67
2022-11-16T03:57:26.013Z,3.67
2022-11-16T03:59:59.898Z,3.66
2022-11-16T04:02:29.700Z,3.70
2022-11-16T04:05:17.403Z,3.70
2022-11-16T04:08:03.637Z,3.75
2022-11-16T04:11:01.035Z,3.75
2022-11-16T04:13:50.901Z,3.75
2022-11-16T04:16:37.195Z,3.75
2022-11-16T04:19:28.926Z,3.80
2022-11-16T04:22:17.817Z,3.80
2022-11-16T04:24:52.541Z,3.80
2022-11-16T04:27:42.364Z,3.83
2022-11-16T04:30:12.912Z,3.81
2022-11-16T04:32:59.367Z,3.81
2022-11-16T04:35:46.480Z,3.81
2022-11-16T04:38:15.871Z,3.84
2022-11-16T04:40:44.240Z,3.88
2022-11-16T04:43:13.411Z,3.84
2022-11-16T04:46:02.408Z,3.83
2022-11-16T04:48:38.325Z,3.82
2022-11-16T04:51:08.117Z,3.83
2022-11-16T04:53:37.212Z,3.80
2022-11-16T04:56:15.197Z,3.77
2022-11-16T04:58:44.320Z,3.74
2022-11-16T05:01:12.725Z,3.79
2022-11-16T05:03:41.131Z,3.81
2022-11-16T05:06:10.905Z,3.80
2022-11-16T05:08:39.490Z,3.84
2022-11-16T05:11:08.178Z,3.83
2022-11-16T05:13:36.634Z,3.83
2022-11-16T05:16:05.900Z,3.83
2022-11-16T05:18:34.703Z,3.85
2022-11-16T05:21:04.310Z,3.83
2022-11-16T05:23:56.566Z,3.86
2022-11-16T05:26:28.147Z,3.86
2022-11-16T05:28:56.808Z,3.83
2022-11-16T05:31:25.143Z,3.82
2022-11-16T05:33:54.330Z,3.84
2022-11-16T05:36:23.583Z,3.82
2022-11-16T05:38:56.277Z,3.87
2022-11-16T05:41:27.426Z,3.87
2022-11-16T05:43:56.150Z,3.82
2022-11-16T05:46:25.507Z,3.80
2022-11-16T05:48:56.681Z,3.78
2022-11-16T05:51:25.389Z,3.76
2022-11-16T05:53:56.852Z,3.77
2022-11-16T05:56:26.220Z,3.75
2022-11-16T05:58:56.874Z,3.76
2022-11-16T06:01:26.581Z,3.79
2022-11-16T06:03:55.560Z,3.77
2022-11-16T06:06:24.340Z,3.78
2022-11-16T06:08:53.807Z,3.77
2022-11-16T06:11:32.726Z,3.80
2022-11-16T06:14:04.787Z,3.77
2022-11-16T06:16:34.342Z,3.75
2022-11-16T06:19:06.028Z,3.75
2022-11-16T06:21:34.553Z,3.75
2022-11-16T06:24:08.996Z,3.78
2022-11-16T06:26:39.301Z,3.77
2022-11-16T06:29:07.947Z,3.77
2022-11-16T06:31:37.135Z,3.76
2022-11-16T06:34:06.120Z,3.78
2022-11-16T06:36:35.627Z,3.79
2022-11-16T06:39:04.701Z,3.84
2022-11-16T06:41:41.373Z,3.82
2022-11-16T06:44:12.013Z,3.84
2022-11-16T06:46:47.725Z,3.85
2022-11-16T06:49:16.088Z,3.86
2022-11-16T06:51:44.458Z,3.83
2022-11-16T06:54:12.843Z,3.87
2022-11-16T06:56:42.536Z,3.88
2022-11-16T06:59:11.639Z,3.85
2022-11-16T07:01:40.153Z,3.87
2022-11-16T07:04:15.941Z,3.89
2022-11-16T07:06:51.447Z,3.89
2022-11-16T07:09:20.480Z,3.92
2022-11-16T07:11:51.113Z,3.92
2022-11-16T07:14:21.017Z,3.92
2022-11-16T07:16:54.859Z,3.91
2022-11-16T07:19:26.348Z,3.93
2022-11-16T07:21:55.104Z,3.90
2022-11-16T07:24:24.396Z,3.93
2022-11-16T07:26:54.448Z,3.91
2022-11-16T07:29:26.784Z,3.92
2022-11-16T07:32:24.735Z,3.93
2022-11-16T07:35:12.705Z,3.93
2022-11-16T07:37:42.033Z,3.97
2022-11-16T07:40:11.652Z,4.00
2022-11-16T07:42:43.604Z,4.03
2022-11-16T07:45:21.262Z,4.06
2022-11-16T07:47:55.126Z,4.06
2022-11-16T07:50:49.654Z,4.06
2022-11-16T07:53:19.258Z,4.09
2022-11-16T07:55:54.497Z,4.07
2022-11-16T07:58:26.190Z,4.07
2022-11-16T08:00:55.858Z,4.07
2022-11-16T08:03:24.888Z,4.06
2022-11-16T08:06:01.216Z,4.08
2022-11-16T08:08:30.630Z,4.10
2022-11-16T08:11:01.486Z,4.12
2022-11-16T08:13:34.237Z,4.15
2022-11-16T08:16:05.103Z,4.18
2022-11-16T08:18:35.491Z,4.20
2022-11-16T08:21:05.527Z,4.21
2022-11-16T08:23:34.861Z,4.25
2022-11-16T08:26:07.470Z,4.24
2022-11-16T08:28:38.378Z,4.29
2022-11-16T08:31:10.743Z,4.29
2022-11-16T08:33:40.654Z,4.29
2022-11-16T08:36:17.180Z,4.27
2022-11-16T08:38:47.546Z,4.23
2022-11-16T08:41:17.382Z,4.34
2022-11-16T08:43:50.565Z,4.33
2022-11-16T08:46:22.812Z,4.38
2022-11-16T08:48:57.959Z,4.46
2022-11-16T08:51:27.105Z,4.50
2022-11-16T08:54:03.666Z,4.43
2022-11-16T08:56:33.703Z,4.49
2022-11-16T08:59:03.501Z,4.53
2022-11-16T09:01:33.528Z,4.57
2022-11-16T09:04:02.147Z,4.61
2022-11-16T09:06:30.835Z,4.63
2022-11-16T09:08:59.338Z,4.65
2022-11-16T09:11:27.779Z,4.75
2022-11-16T09:13:57.503Z,4.68
2022-11-16T09:16:27.961Z,4.69
2022-11-16T09:18:57.150Z,4.75
2022-11-16T09:21:27.686Z,4.83
2022-11-16T09:23:58.191Z,4.88
2022-11-16T09:26:27.077Z,4.86
2022-11-16T09:28:58.196Z,4.95
2022-11-16T09:31:29.094Z,4.89
2022-11-16T09:33:59.363Z,4.94
2022-11-16T09:36:29.562Z,4.91
2022-11-16T09:39:30.236Z,4.96
2022-11-16T09:42:06.653Z,5.00
2022-11-16T09:44:53.481Z,4.99
2022-11-16T09:47:33.753Z,5.02
2022-11-16T09:50:06.878Z,5.00
2022-11-16T09:52:41.988Z,5.02
2022-11-16T09:55:26.736Z,5.05
2022-11-16T09:58:01.132Z,5.15
2022-11-16T10:00:32.274Z,5.19
2022-11-16T10:03:08.238Z,5.18
2022-11-16T10:05:44.815Z,5.27
2022-11-16T10:08:21.198Z,5.33
2022-11-16T10:11:04.981Z,5.43
2022-11-16T10:13:51.968Z,5.50
2022-11-16T10:16:31.264Z,5.48
2022-11-16T10:19:15.874Z,5.31
2022-11-16T10:21:56.944Z,5.37
2022-11-16T10:24:44.476Z,5.32
2022-11-16T10:27:47.306Z,5.28
2022-11-16T10:30:19.409Z,5.28
2022-11-16T10:32:53.672Z,5.30
2022-11-16T10:35:32.132Z,5.29
2022-11-16T10:38:04.056Z,5.33
2022-11-16T10:40:39.894Z,5.39
2022-11-16T10:43:17.711Z,5.35
2022-11-16T10:45:52.980Z,5.41
2022-11-16T10:48:37.298Z,5.56
2022-11-16T10:51:09.254Z,5.50
2022-11-16T10:53:40.906Z,5.47
2022-11-16T10:56:18.628Z,5.55
2022-11-16T10:58:56.715Z,5.57
2022-11-16T11:01:38.112Z,5.74
2022-11-16T11:04:28.690Z,5.91
2022-11-16T11:07:00.486Z,5.91
2022-11-16T11:09:32.882Z,6.09
2022-11-16T11:12:34.009Z,6.28
2022-11-16T11:15:13.432Z,6.41
2022-11-16T11:17:44.908Z,6.44
2022-11-16T11:20:24.592Z,6.52
2022-11-16T11:22:58.355Z,6.39
2022-11-16T11:25:30.186Z,6.38
2022-11-16T11:28:08.959Z,6.36
2022-11-16T11:30:37.911Z,6.15
2022-11-16T11:33:12.416Z,6.48
2022-11-16T11:35:40.864Z,6.78
2022-11-16T11:38:17.167Z,7.07
2022-11-16T11:40:59.627Z,6.99
2022-11-16T11:43:30.167Z,6.68
2022-11-16T11:46:14.072Z,6.80
2022-11-16T11:48:54.564Z,7.02
2022-11-16T11:51:32.724Z,7.23
2022-11-16T11:54:05.916Z,6.93
2022-11-16T11:56:34.979Z,6.87
2022-11-16T11:59:05.953Z,7.09
2022-11-16T12:02:20.119Z,7.02
2022-11-16T12:05:23.896Z,6.87
2022-11-16T12:08:22.603Z,7.04
2022-11-16T12:11:01.547Z,6.98
2022-11-16T12:14:01.524Z,7.03
2022-11-16T12:16:43.618Z,6.88
2022-11-16T12:19:46.636Z,6.72
2022-11-16T12:22:37.879Z,6.69
2022-11-16T12:25:24.974Z,6.80
2022-11-16T12:28:14.938Z,6.69
2022-11-16T12:31:10.198Z,6.54
2022-11-16T12:33:49.380Z,6.56
2022-11-16T12:36:35.594Z,6.59
2022-11-16T12:39:14.811Z,6.51
2022-11-16T12:42:25.505Z,6.46
2022-11-16T12:45:26.408Z,6.61
2022-11-16T12:48:27.348Z,6.68
2022-11-16T12:51:07.861Z,6.67
2022-11-16T12:54:09.873Z,6.81
2022-11-16T12:56:51.825Z,6.77
2022-11-16T12:59:45.290Z,6.68
2022-11-16T13:02:34.977Z,6.81
2022-11-16T13:05:13.312Z,7.01
2022-11-16T13:07:47.943Z,7.03
2022-11-16T13:10:23.469Z,7.09
2022-11-16T13:13:29.777Z,6.96
2022-11-16T13:15:48.977Z,6.97
2022-11-16T13:18:24.025Z,7.03
2022-11-16T13:21:02.335Z,7.03
2022-11-16T13:23:50.716Z,6.96
2022-11-16T13:26:28.376Z,7.15
2022-11-16T13:29:06.079Z,7.33
2022-11-16T13:31:43.826Z,7.47
2022-11-16T13:34:23.794Z,7.39
2022-11-16T13:36:52.464Z,7.44
2022-11-16T13:39:42.328Z,7.34
2022-11-16T13:42:15.070Z,7.37
2022-11-16T13:44:48.769Z,7.45
2022-11-16T13:47:25.658Z,7.46
2022-11-16T13:49:59.562Z,7.43
2022-11-16T13:53:36.520Z,7.07
2022-11-16T13:55:36.360Z,6.83
2022-11-16T13:58:07.361Z,6.75
2022-11-16T14:00:40.131Z,6.91
2022-11-16T14:03:29.043Z,7.08
2022-11-16T14:05:58.789Z,6.92
2022-11-16T14:08:51.700Z,6.88
2022-11-16T14:11:36.198Z,7.03
2022-11-16T14:14:06.833Z,6.95
2022-11-16T14:16:49.061Z,7.04
2022-11-16T14:19:55.573Z,6.97
2022-11-16T14:22:52.038Z,7.01
2022-11-16T14:25:33.630Z,7.02
2022-11-16T14:28:25.401Z,6.98
2022-11-16T14:31:11.173Z,7.17
2022-11-16T14:33:40.111Z,7.62
2022-11-16T14:36:11.401Z,7.87
2022-11-16T14:38:43.344Z,8.06
2022-11-16T14:41:22.013Z,7.84
2022-11-16T14:43:54.568Z,7.45
2022-11-16T14:46:27.167Z,7.21
2022-11-16T14:48:57.700Z,7.10
2022-11-16T14:51:32.007Z,6.97
2022-11-16T14:54:06.141Z,6.95
2022-11-16T14:56:34.969Z,6.85
2022-11-16T14:59:04.760Z,6.79
2022-11-16T15:01:37.907Z,6.78
2022-11-16T15:04:10.465Z,6.71
2022-11-16T15:06:44.887Z,6.71
2022-11-16T15:09:20.905Z,6.68
2022-11-16T15:12:09.744Z,6.67
2022-11-16T15:14:45.629Z,6.62
2022-11-16T15:17:17.598Z,6.66
2022-11-16T15:19:56.321Z,6.60
2022-11-16T15:22:28.904Z,6.55
2022-11-16T15:25:01.037Z,6.53
2022-11-16T15:27:37.789Z,6.50
2022-11-16T15:30:18.123Z,6.46
2022-11-16T15:32:49.662Z,6.46
2022-11-16T15:35:23.250Z,6.47
2022-11-16T15:38:03.320Z,6.49
2022-11-16T15:40:34.976Z,6.49
2022-11-16T15:43:07.671Z,6.53
2022-11-16T15:45:38.525Z,6.54
2022-11-16T15:48:07.636Z,6.50
2022-11-16T15:50:36.040Z,6.49
2022-11-16T15:53:04.692Z,6.49
2022-11-16T15:55:39.783Z,6.49
2022-11-16T15:58:15.380Z,6.49
2022-11-16T16:00:47.701Z,6.45
2022-11-16T16:03:24.495Z,6.43
2022-11-16T16:05:54.585Z,6.45
2022-11-16T16:08:35.715Z,6.43
2022-11-16T16:11:28.821Z,6.42
2022-11-16T16:14:03.015Z,6.43
2022-11-16T16:16:36.315Z,6.39
2022-11-16T16:19:10.076Z,6.33
2022-11-16T16:21:45.514Z,6.37
2022-11-16T16:24:40.031Z,6.34
2022-11-16T16:27:17.155Z,6.32
2022-11-16T16:29:46.731Z,6.28
2022-11-16T16:32:25.482Z,6.29
2022-11-16T16:34:54.191Z,6.28
2022-11-16T16:37:23.373Z,6.23
2022-11-16T16:39:51.687Z,6.23
2022-11-16T16:42:22.133Z,6.25
2022-11-16T16:44:51.310Z,6.18
2022-11-16T16:47:21.156Z,6.14
2022-11-16T16:49:49.918Z,6.13
2022-11-16T16:52:19.210Z,6.20
2022-11-16T16:54:47.869Z,6.20
2022-11-16T16:57:17.542Z,6.09
2022-11-16T16:59:48.505Z,6.04
2022-11-16T17:02:18.247Z,6.05
2022-11-16T17:04:48.457Z,6.04
2022-11-16T17:07:17.359Z,5.99
2022-11-16T17:09:46.240Z,5.98
2022-11-16T17:12:14.677Z,5.95
2022-11-16T17:14:43.031Z,5.92
2022-11-16T17:17:12.700Z,5.90
2022-11-16T17:19:41.338Z,6.00
2022-11-16T17:22:09.667Z,6.04
2022-11-16T17:24:38.315Z,6.04
2022-11-16T17:27:06.857Z,6.02
2022-11-16T17:29:35.744Z,6.03
2022-11-16T17:32:04.500Z,5.97
2022-11-16T17:34:34.196Z,5.91
2022-11-16T17:37:02.584Z,5.81
2022-11-16T17:39:30.913Z,5.81
2022-11-16T17:41:59.261Z,5.77
2022-11-16T17:44:27.681Z,5.71
2022-11-16T17:46:56.750Z,5.74
2022-11-16T17:49:25.109Z,5.76
2022-11-16T17:51:54.827Z,5.73
2022-11-16T17:54:23.486Z,5.73
2022-11-16T17:56:52.166Z,5.67
2022-11-16T17:59:24.966Z,5.66
2022-11-16T18:01:57.664Z,5.67
2022-11-16T18:04:26.275Z,5.67
2022-11-16T18:06:56.985Z,5.64
2022-11-16T18:09:25.370Z,5.65
2022-11-16T18:11:53.774Z,5.59
2022-11-16T18:14:22.928Z,5.48
2022-11-16T18:16:51.286Z,5.50
2022-11-16T18:19:20.963Z,5.54
2022-11-16T18:21:49.876Z,5.56
2022-11-16T18:24:19.546Z,5.56
2022-11-16T18:26:47.877Z,5.67
2022-11-16T18:29:18.662Z,5.72
2022-11-16T18:31:47.361Z,5.74
2022-11-16T18:34:16.767Z,5.78
2022-11-16T18:36:46.387Z,5.72
2022-11-16T18:39:15.036Z,5.72
2022-11-16T18:41:54.483Z,5.77
2022-11-16T18:44:23.926Z,5.66
2022-11-16T18:46:52.444Z,5.66
2022-11-16T18:49:20.842Z,5.67
2022-11-16T18:51:49.519Z,5.74
2022-11-16T18:54:18.152Z,5.75
2022-11-16T18:56:47.875Z,5.78
2022-11-16T18:59:16.198Z,5.81
2022-11-16T19:01:44.843Z,5.87
2022-11-16T19:04:13.494Z,5.83
2022-11-16T19:06:41.879Z,5.80
2022-11-16T19:09:11.434Z,5.74
2022-11-16T19:11:39.860Z,5.76
2022-11-16T19:14:10.170Z,5.76
2022-11-16T19:16:43.466Z,5.75
2022-11-16T19:19:17.355Z,5.78
2022-11-16T19:21:45.978Z,5.83
2022-11-16T19:24:14.363Z,5.81
2022-11-16T19:26:42.690Z,5.81
2022-11-16T19:29:12.495Z,5.81
2022-11-16T19:31:42.709Z,5.83
2022-11-16T19:34:13.915Z,5.86
2022-11-16T19:36:42.271Z,5.84
2022-11-16T19:39:10.927Z,5.83
2022-11-16T19:41:39.266Z,5.81
2022-11-16T19:44:07.617Z,5.86
2022-11-16T19:46:37.363Z,5.83
2022-11-16T19:49:05.733Z,5.84
2022-11-16T19:51:35.295Z,5.88
2022-11-16T19:54:04.472Z,5.86
2022-11-16T19:56:32.935Z,5.90
2022-11-16T19:59:01.659Z,5.87
2022-11-16T20:01:30.248Z,5.81
2022-11-16T20:04:03.429Z,5.77
2022-11-16T20:06:34.239Z,5.79
2022-11-16T20:09:08.757Z,5.78
2022-11-16T20:11:40.231Z,5.79
2022-11-16T20:14:11.717Z,5.72
2022-11-16T20:16:43.140Z,5.67
2022-11-16T20:19:12.898Z,5.70
2022-11-16T20:21:43.589Z,5.69
2022-11-16T20:24:15.220Z,5.75
2022-11-16T20:26:46.289Z,5.78
2022-11-16T20:29:16.851Z,5.75
2022-11-16T20:31:46.125Z,5.71
2022-11-16T20:34:18.518Z,5.74
2022-11-16T20:36:50.743Z,5.71
2022-11-16T20:39:21.188Z,5.67
2022-11-16T20:41:50.234Z,5.69
2022-11-16T20:44:22.113Z,5.69
2022-11-16T20:46:52.374Z,5.71
2022-11-16T20:49:22.324Z,5.75
2022-11-16T20:51:51.347Z,5.73
2022-11-16T20:54:19.663Z,5.69
2022-11-16T20:56:49.807Z,5.78
2022-11-16T20:59:18.176Z,5.75
2022-11-16T21:01:48.859Z,5.72
2022-11-16T21:04:17.768Z,5.75
2022-11-16T21:06:47.463Z,5.74
2022-11-16T21:09:22.401Z,5.71
2022-11-16T21:12:08.352Z,5.62
2022-11-16T21:14:36.972Z,5.64
2022-11-16T21:17:05.458Z,5.61
2022-11-16T21:19:33.749Z,5.55
2022-11-16T21:22:03.764Z,5.59
2022-11-16T21:24:32.275Z,5.58
2022-11-16T21:27:00.665Z,5.56
2022-11-16T21:29:28.976Z,5.51
2022-11-16T21:31:57.589Z,5.47
2022-11-16T21:34:27.845Z,5.55
2022-11-16T21:36:56.478Z,5.53
2022-11-16T21:39:27.314Z,5.54
2022-11-16T21:41:55.884Z,5.55
2022-11-16T21:44:24.474Z,5.56
2022-11-16T21:46:53.379Z,5.58
2022-11-16T21:49:22.011Z,5.62
2022-11-16T21:51:50.307Z,5.62
2022-11-16T21:54:18.626Z,5.63
2022-11-16T21:56:48.284Z,5.56
2022-11-16T21:59:16.608Z,5.61
2022-11-16T22:02:00.666Z,5.61
2022-11-16T22:04:49.120Z,5.58
2022-11-16T22:07:33.684Z,5.55
2022-11-16T22:10:02.599Z,5.53
2022-11-16T22:12:32.235Z,5.45
2022-11-16T22:15:00.905Z,5.44
2022-11-16T22:17:29.664Z,5.39
2022-11-16T22:19:58.359Z,5.38
2022-11-16T22:22:27.045Z,5.42
2022-11-16T22:24:55.679Z,5.42
2022-11-16T22:27:24.415Z,5.39
2022-11-16T22:29:54.328Z,5.37
2022-11-16T22:32:22.647Z,5.41
2022-11-16T22:34:51.389Z,5.38
2022-11-16T22:37:20.057Z,5.46
2022-11-16T22:39:48.362Z,5.43
2022-11-16T22:42:16.965Z,5.37
2022-11-16T22:44:45.596Z,5.36
2022-11-16T22:47:15.500Z,5.33
2022-11-16T22:49:44.129Z,5.35
2022-11-16T22:52:12.800Z,5.37
2022-11-16T22:54:41.392Z,5.35
2022-11-16T22:57:09.975Z,5.35
2022-11-16T22:59:38.302Z,5.35
2022-11-16T23:02:08.464Z,5.38
2022-11-16T23:04:38.160Z,5.38
2022-11-16T23:07:06.583Z,5.42
2022-11-16T23:09:35.365Z,5.40
2022-11-16T23:12:21.732Z,5.43
2022-11-16T23:15:07.777Z,5.46
2022-11-16T23:17:36.077Z,5.43
2022-11-16T23:20:24.113Z,5.43
2022-11-16T23:23:10.050Z,5.45
2022-11-16T23:25:56.164Z,5.47
2022-11-16T23:28:24.811Z,5.47
2022-11-16T23:30:53.170Z,5.51
2022-11-16T23:33:42.182Z,5.51
2022-11-16T23:36:12.664Z,5.55
2022-11-16T23:38:41.703Z,5.55
2022-11-16T23:41:27.578Z,5.58
2022-11-16T23:43:58.901Z,5.56
2022-11-16T23:46:28.350Z,5.53
2022-11-16T23:48:56.798Z,5.51
2022-11-16T23:51:26.802Z,5.57
2022-11-16T23:53:55.947Z,5.53
2022-11-16T23:56:24.908Z,5.53
2022-11-16T23:58:58.271Z,5.50
